Terminal Aerodrome Forecast
Issued by NWS Jacksonville, FL

Home | Current Version | Previous Version | Text Only | Print | Product List | Glossary On
Versions: 1 2 3 4 5 6 7 8 9 10 11 12 13 14 15 16 17 18 19 20
395
FTUS42 KJAX 252330
TAFGNV
TAF
KGNV 252330Z 2600/2624 VRB06KT P6SM VCTS BKN040CB OVC100
      TEMPO 2600/2601 VRB10G20KT 5SM -SHRA OVC040
     FM260200 00000KT P6SM FEW050
     FM261400 17006KT P6SM FEW030
     FM261900 17006KT P6SM VCTS BKN050CB=

USA.gov is the U.S. government's official web portal to all federal, state and local government web resources and services.